createdAt,value
2023-03-06T00:01:37.831Z,13.52
2023-03-06T00:04:40.544Z,10.00
2023-03-06T00:07:43.371Z,12.90
2023-03-06T00:10:45.994Z,12.15
2023-03-06T00:13:48.168Z,11.45
2023-03-06T00:16:55.367Z,13.68
2023-03-06T00:19:57.585Z,12.82
2023-03-06T00:23:00.244Z,15.88
2023-03-06T00:26:02.433Z,17.60
2023-03-06T00:29:05.014Z,17.12
2023-03-06T00:32:07.669Z,15.52
2023-03-06T00:35:10.832Z,17.83
2023-03-06T00:38:13.175Z,18.65
2023-03-06T00:41:15.595Z,18.70
2023-03-06T00:44:17.711Z,18.20
2023-03-06T00:47:20.194Z,20.20
2023-03-06T00:50:22.452Z,17.55
2023-03-06T00:53:25.425Z,17.15
2023-03-06T00:56:27.589Z,18.45
2023-03-06T00:59:30.015Z,16.50
2023-03-06T01:02:32.436Z,19.62
2023-03-06T01:05:36.920Z,16.33
2023-03-06T01:08:39.040Z,17.10
2023-03-06T01:11:41.499Z,18.42
2023-03-06T01:14:43.643Z,17.42
2023-03-06T01:17:46.280Z,13.50
2023-03-06T01:20:48.696Z,16.95
2023-03-06T01:23:51.478Z,14.55
2023-03-06T01:26:53.722Z,14.20
2023-03-06T01:29:56.396Z,14.85
2023-03-06T01:32:59.250Z,13.62
2023-03-06T01:36:07.397Z,15.75
2023-03-06T01:39:09.858Z,14.13
2023-03-06T01:42:12.265Z,15.23
2023-03-06T01:45:14.321Z,11.25
2023-03-06T01:48:20.924Z,10.32
2023-03-06T01:51:27.236Z,8.88
2023-03-06T01:54:36.345Z,9.40
2023-03-06T01:57:48.256Z,12.45
2023-03-06T02:00:52.145Z,8.52
2023-03-06T02:03:55.240Z,10.85
2023-03-06T02:07:01.191Z,10.30
2023-03-06T02:10:07.366Z,8.68
2023-03-06T02:13:09.789Z,8.75
2023-03-06T02:16:13.595Z,8.30
2023-03-06T02:19:28.792Z,8.18
2023-03-06T02:22:53.496Z,9.23
2023-03-06T02:25:57.021Z,8.45
2023-03-06T02:29:00.039Z,7.75
2023-03-06T02:32:02.964Z,9.32
2023-03-06T02:35:07.102Z,9.73
2023-03-06T02:38:13.619Z,7.75
2023-03-06T02:41:16.338Z,9.20
2023-03-06T02:44:22.319Z,9.68
2023-03-06T02:47:24.645Z,8.20
2023-03-06T02:50:27.168Z,9.63
2023-03-06T02:53:29.368Z,10.65
2023-03-06T02:56:34.032Z,8.05
2023-03-06T02:59:36.307Z,11.02
2023-03-06T03:02:40.279Z,11.40
2023-03-06T03:05:42.536Z,9.50
2023-03-06T03:08:45.779Z,9.63
2023-03-06T03:11:48.689Z,11.15
2023-03-06T03:14:51.535Z,11.27
2023-03-06T03:17:53.813Z,8.38
2023-03-06T03:20:56.397Z,11.38
2023-03-06T03:23:58.541Z,9.20
2023-03-06T03:27:02.356Z,8.85
2023-03-06T03:30:05.073Z,10.63
2023-03-06T03:33:08.290Z,11.50
2023-03-06T03:36:10.626Z,11.15
2023-03-06T03:39:13.733Z,11.12
2023-03-06T03:42:16.132Z,9.63
2023-03-06T03:45:19.048Z,9.75
2023-03-06T03:48:21.678Z,11.12
2023-03-06T03:51:24.500Z,10.07
2023-03-06T03:54:27.240Z,9.48
2023-03-06T03:57:30.237Z,7.43
2023-03-06T04:00:33.012Z,10.65
2023-03-06T04:03:36.617Z,8.63
2023-03-06T04:06:39.539Z,11.38
2023-03-06T04:09:42.412Z,10.32
2023-03-06T04:12:44.684Z,10.55
2023-03-06T04:15:48.223Z,11.43
2023-03-06T04:18:50.887Z,10.43
2023-03-06T04:21:53.482Z,11.57
2023-03-06T04:24:56.735Z,10.88
2023-03-06T04:27:59.194Z,10.50
2023-03-06T04:31:01.632Z,9.02
2023-03-06T04:34:05.247Z,10.95
2023-03-06T04:37:18.026Z,10.93
2023-03-06T04:40:28.190Z,10.38
2023-03-06T04:43:30.468Z,12.60
2023-03-06T04:46:33.509Z,11.00
2023-03-06T04:49:35.661Z,10.43
2023-03-06T04:52:40.296Z,11.30
2023-03-06T04:55:42.953Z,13.75
2023-03-06T04:58:45.538Z,14.00
2023-03-06T05:01:47.815Z,13.68
2023-03-06T05:04:50.296Z,11.98
2023-03-06T05:07:53.160Z,12.02
2023-03-06T05:10:58.391Z,12.85
2023-03-06T05:14:00.599Z,15.68
2023-03-06T05:17:03.157Z,13.80
2023-03-06T05:20:06.920Z,13.20
2023-03-06T05:23:09.497Z,13.90
2023-03-06T05:26:13.935Z,16.17
2023-03-06T05:29:16.362Z,14.18
2023-03-06T05:32:18.584Z,14.23
2023-03-06T05:35:23.158Z,11.35
2023-03-06T05:38:26.048Z,15.43
2023-03-06T05:41:28.538Z,20.73
2023-03-06T05:44:33.082Z,13.05
2023-03-06T05:47:35.566Z,12.88
2023-03-06T05:50:38.193Z,15.80
2023-03-06T05:53:41.005Z,15.13
2023-03-06T05:56:43.382Z,17.15
2023-03-06T05:59:46.464Z,15.25
2023-03-06T06:02:49.005Z,16.83
2023-03-06T06:05:52.397Z,12.77
2023-03-06T06:08:54.638Z,16.15
2023-03-06T06:12:00.259Z,17.80
2023-03-06T06:15:02.597Z,17.45
2023-03-06T06:18:05.348Z,16.73
2023-03-06T06:21:09.228Z,17.00
2023-03-06T06:24:14.025Z,16.95
2023-03-06T06:27:16.244Z,24.87
2023-03-06T06:30:18.955Z,23.02
2023-03-06T06:33:21.358Z,25.42
2023-03-06T06:36:23.862Z,27.65
2023-03-06T06:39:28.255Z,22.35
2023-03-06T06:42:37.724Z,22.48
2023-03-06T06:45:44.073Z,20.60
2023-03-06T06:48:50.822Z,24.27
2023-03-06T06:51:53.022Z,22.40
2023-03-06T06:54:55.432Z,27.27
2023-03-06T06:57:57.567Z,22.60
2023-03-06T07:01:11.934Z,23.83
2023-03-06T07:04:14.884Z,19.05
2023-03-06T07:07:17.500Z,21.80
2023-03-06T07:10:21.033Z,20.98
2023-03-06T07:13:23.650Z,21.48
2023-03-06T07:16:25.901Z,23.33
2023-03-06T07:19:28.503Z,21.80
2023-03-06T07:22:41.459Z,24.33
2023-03-06T07:25:47.506Z,23.92
2023-03-06T07:28:53.140Z,21.55
2023-03-06T07:31:55.742Z,17.45
2023-03-06T07:35:13.718Z,17.55
2023-03-06T07:38:20.531Z,19.60
2023-03-06T07:41:23.105Z,17.42
2023-03-06T07:44:25.670Z,15.80
2023-03-06T07:47:28.035Z,24.60
2023-03-06T07:50:31.001Z,15.15
2023-03-06T07:53:34.681Z,15.02
2023-03-06T07:56:37.168Z,16.75
2023-03-06T07:59:39.305Z,14.70
2023-03-06T08:02:42.765Z,14.25
2023-03-06T08:05:46.200Z,16.48
2023-03-06T08:08:51.036Z,18.23
2023-03-06T08:11:53.525Z,15.43
2023-03-06T08:14:55.764Z,17.05
2023-03-06T08:17:58.405Z,16.95
2023-03-06T08:21:02.864Z,21.25
2023-03-06T08:24:07.547Z,17.23
2023-03-06T08:27:10.596Z,13.88
2023-03-06T08:30:14.049Z,13.77
2023-03-06T08:33:16.243Z,13.35
2023-03-06T08:36:18.712Z,14.30
2023-03-06T08:39:21.302Z,13.55
2023-03-06T08:42:23.913Z,17.00
2023-03-06T08:45:26.196Z,13.48
2023-03-06T08:48:28.693Z,14.87
2023-03-06T08:51:31.342Z,15.25
2023-03-06T08:54:37.103Z,14.50
2023-03-06T08:57:39.346Z,16.12
2023-03-06T09:00:41.853Z,15.95
2023-03-06T09:03:44.590Z,13.88
2023-03-06T09:06:47.122Z,16.02
2023-03-06T09:09:51.185Z,14.75
2023-03-06T09:12:55.230Z,13.40
2023-03-06T09:15:57.543Z,16.05
2023-03-06T09:19:00.089Z,14.95
2023-03-06T09:22:02.249Z,16.05
2023-03-06T09:25:06.297Z,15.68
2023-03-06T09:28:11.587Z,18.15
2023-03-06T09:31:19.580Z,19.02
2023-03-06T09:34:21.793Z,16.73
2023-03-06T09:37:24.411Z,15.25
2023-03-06T09:41:01.812Z,17.58
2023-03-06T09:44:08.665Z,18.30
2023-03-06T09:47:37.407Z,16.15
2023-03-06T09:50:46.074Z,16.75
2023-03-06T09:53:48.162Z,17.30
2023-03-06T09:56:51.192Z,16.90
2023-03-06T10:00:02.903Z,16.70
2023-03-06T10:03:38.138Z,16.62
2023-03-06T10:06:50.249Z,20.95
2023-03-06T10:09:57.996Z,17.98
2023-03-06T10:13:14.136Z,20.40
2023-03-06T10:16:26.096Z,20.00
2023-03-06T10:19:35.564Z,18.08
2023-03-06T10:22:46.066Z,25.77
2023-03-06T10:25:56.156Z,16.37
2023-03-06T10:29:13.296Z,17.98
2023-03-06T10:32:46.145Z,19.37
2023-03-06T10:35:55.914Z,17.98
2023-03-06T10:38:59.320Z,17.45
2023-03-06T10:42:01.530Z,19.58
2023-03-06T10:45:09.509Z,21.95
2023-03-06T10:48:16.397Z,20.35
2023-03-06T10:51:20.989Z,16.80
2023-03-06T10:54:23.492Z,17.20
2023-03-06T10:57:30.998Z,20.27
2023-03-06T11:00:37.993Z,23.85
2023-03-06T11:03:41.060Z,20.17
2023-03-06T11:06:43.567Z,18.55
2023-03-06T11:10:00.141Z,18.73
2023-03-06T11:13:08.440Z,17.40
2023-03-06T11:16:13.624Z,14.77
2023-03-06T11:19:22.972Z,17.92
2023-03-06T11:22:25.491Z,18.70
2023-03-06T11:25:34.573Z,17.10
2023-03-06T11:29:06.552Z,19.12
2023-03-06T11:32:08.748Z,18.75
2023-03-06T11:35:22.213Z,18.23
2023-03-06T11:38:54.280Z,18.55
2023-03-06T11:42:12.255Z,20.62
2023-03-06T11:45:31.899Z,23.33
2023-03-06T11:48:45.152Z,15.20
2023-03-06T11:51:54.272Z,25.00
2023-03-06T11:54:57.974Z,18.73
2023-03-06T11:58:18.203Z,22.77
2023-03-06T12:01:33.505Z,20.88
2023-03-06T12:04:48.471Z,20.73
2023-03-06T12:08:08.293Z,20.85
2023-03-06T12:11:22.720Z,21.12
2023-03-06T12:14:39.880Z,16.27
2023-03-06T12:18:16.607Z,18.27
2023-03-06T12:21:53.412Z,18.45
2023-03-06T12:25:26.693Z,19.67
2023-03-06T12:28:39.744Z,17.92
2023-03-06T12:32:04.215Z,18.85
2023-03-06T12:35:09.103Z,18.92
2023-03-06T12:38:31.339Z,20.88
2023-03-06T12:41:43.930Z,16.42
2023-03-06T12:45:27.693Z,20.30
2023-03-06T12:48:35.629Z,19.65
2023-03-06T12:51:39.931Z,21.12
2023-03-06T12:54:45.784Z,19.10
2023-03-06T12:57:49.127Z,21.00
2023-03-06T13:01:30.171Z,22.00
2023-03-06T13:08:04.643Z,18.42
2023-03-06T13:11:28.659Z,17.75
2023-03-06T13:14:54.652Z,24.60
2023-03-06T13:17:58.289Z,21.75
2023-03-06T13:21:01.092Z,19.30
2023-03-06T13:24:05.720Z,22.48
2023-03-06T13:27:10.614Z,18.70
2023-03-06T13:30:22.442Z,19.08
2023-03-06T13:33:27.618Z,18.62
2023-03-06T13:36:31.544Z,19.12
2023-03-06T13:39:56.887Z,24.98
2023-03-06T13:43:12.517Z,21.52
2023-03-06T13:46:28.948Z,22.37
2023-03-06T13:49:32.367Z,23.05
2023-03-06T13:52:46.696Z,25.42
2023-03-06T13:56:08.292Z,27.35
2023-03-06T13:59:34.001Z,22.62
2023-03-06T14:02:36.603Z,26.00
2023-03-06T14:05:51.031Z,21.25
2023-03-06T14:08:53.286Z,24.85
2023-03-06T14:12:23.672Z,20.77
2023-03-06T14:15:30.535Z,22.50
2023-03-06T14:18:39.940Z,22.42
2023-03-06T14:21:44.957Z,23.65
2023-03-06T14:25:02.909Z,22.25
2023-03-06T14:28:13.785Z,23.30
2023-03-06T14:31:20.483Z,22.95
2023-03-06T14:34:25.673Z,22.83
2023-03-06T14:37:29.085Z,21.67
2023-03-06T14:40:45.069Z,21.25
2023-03-06T14:43:47.620Z,21.30
2023-03-06T14:46:52.956Z,25.52
2023-03-06T14:50:32.415Z,22.02
2023-03-06T14:53:35.024Z,25.80
2023-03-06T14:56:42.999Z,23.83
2023-03-06T14:59:56.960Z,24.98
2023-03-06T15:02:59.955Z,24.05
2023-03-06T15:06:03.807Z,22.65
2023-03-06T15:09:30.170Z,26.08
2023-03-06T15:12:34.930Z,24.27
2023-03-06T15:15:37.508Z,25.12
2023-03-06T15:18:54.476Z,25.67
2023-03-06T15:21:56.927Z,22.67
2023-03-06T15:25:37.374Z,25.40
2023-03-06T15:28:39.974Z,23.62
2023-03-06T15:31:45.781Z,21.02
2023-03-06T15:34:48.350Z,22.33
2023-03-06T15:37:51.252Z,21.60
2023-03-06T15:40:58.354Z,21.12
2023-03-06T15:44:02.670Z,24.10
2023-03-06T15:47:09.183Z,23.62
2023-03-06T15:50:16.689Z,22.50
2023-03-06T15:53:20.315Z,21.52
2023-03-06T15:56:34.410Z,20.95
2023-03-06T15:59:43.173Z,21.60
2023-03-06T16:02:45.283Z,25.77
2023-03-06T16:05:47.779Z,21.35
2023-03-06T16:08:51.186Z,22.70
2023-03-06T16:11:54.026Z,21.90
2023-03-06T16:14:57.549Z,30.50
2023-03-06T16:18:00.263Z,22.05
2023-03-06T16:21:02.630Z,23.30
2023-03-06T16:24:05.213Z,24.20
2023-03-06T16:27:16.863Z,20.62
2023-03-06T16:30:20.177Z,22.87
2023-03-06T16:33:22.308Z,20.77
2023-03-06T16:36:27.109Z,25.12
2023-03-06T16:39:29.256Z,22.27
2023-03-06T16:42:31.951Z,21.05
2023-03-06T16:45:39.111Z,27.55
2023-03-06T16:48:41.563Z,23.83
2023-03-06T16:51:44.114Z,21.15
2023-03-06T16:54:46.552Z,24.55
2023-03-06T16:57:48.730Z,24.60
2023-03-06T17:00:51.288Z,24.55
2023-03-06T17:03:53.503Z,24.17
2023-03-06T17:06:55.974Z,23.85
2023-03-06T17:09:58.113Z,22.92
2023-03-06T17:13:00.618Z,24.48
2023-03-06T17:16:03.139Z,26.83
2023-03-06T17:19:05.985Z,25.35
2023-03-06T17:22:08.166Z,21.40
2023-03-06T17:25:11.035Z,25.00
2023-03-06T17:28:13.719Z,22.50
2023-03-06T17:31:22.023Z,25.17
2023-03-06T17:34:24.669Z,25.08
2023-03-06T17:37:27.293Z,28.15
2023-03-06T17:40:29.543Z,23.45
2023-03-06T17:43:32.422Z,27.02
2023-03-06T17:46:34.789Z,24.12
2023-03-06T17:49:37.237Z,22.55
2023-03-06T17:52:39.416Z,24.65
2023-03-06T17:55:41.853Z,25.98
2023-03-06T17:58:44.176Z,25.48
2023-03-06T18:01:46.924Z,25.52
2023-03-06T18:04:49.418Z,26.33
2023-03-06T18:07:51.626Z,28.83
2023-03-06T18:11:04.325Z,22.05
2023-03-06T18:14:06.495Z,24.48
2023-03-06T18:17:09.029Z,21.15
2023-03-06T18:20:11.850Z,25.40
2023-03-06T18:23:14.385Z,22.77
2023-03-06T18:26:21.870Z,22.75
2023-03-06T18:29:24.513Z,25.52
2023-03-06T18:32:26.700Z,23.92
2023-03-06T18:35:29.407Z,24.58
2023-03-06T18:38:31.625Z,24.83
2023-03-06T18:41:35.849Z,23.75
2023-03-06T18:44:38.635Z,20.70
2023-03-06T18:47:41.186Z,26.33
2023-03-06T18:50:43.414Z,22.40
2023-03-06T18:53:46.378Z,22.77
2023-03-06T18:56:48.525Z,24.85
2023-03-06T18:59:51.014Z,22.02
2023-03-06T19:02:53.201Z,21.48
2023-03-06T19:05:55.818Z,21.50
2023-03-06T19:09:02.148Z,23.73
2023-03-06T19:12:05.669Z,23.60
2023-03-06T19:15:08.435Z,21.98
2023-03-06T19:18:12.339Z,25.62
2023-03-06T19:21:21.836Z,21.00
2023-03-06T19:24:24.290Z,22.62
2023-03-06T19:27:26.464Z,24.33
2023-03-06T19:30:29.042Z,24.90
2023-03-06T19:33:31.198Z,25.33
2023-03-06T19:36:34.314Z,23.35
2023-03-06T19:39:36.481Z,21.67
2023-03-06T19:42:38.945Z,23.40
2023-03-06T19:45:43.218Z,22.75
2023-03-06T19:48:46.226Z,25.17
2023-03-06T19:51:48.352Z,24.65
2023-03-06T19:54:51.407Z,25.77
2023-03-06T19:57:53.907Z,25.55
2023-03-06T20:01:12.631Z,23.35
2023-03-06T20:04:16.885Z,26.83
2023-03-06T20:07:19.556Z,28.30
2023-03-06T20:10:22.000Z,23.35
2023-03-06T20:13:24.227Z,21.10
2023-03-06T20:16:28.031Z,24.00
2023-03-06T20:19:30.244Z,24.80
2023-03-06T20:22:32.660Z,27.45
2023-03-06T20:25:36.442Z,23.95
2023-03-06T20:28:40.744Z,28.75
2023-03-06T20:31:43.149Z,27.15
2023-03-06T20:34:45.906Z,25.75
2023-03-06T20:37:48.098Z,29.45
2023-03-06T20:40:54.525Z,33.17
2023-03-06T20:43:58.519Z,28.70
2023-03-06T20:47:01.105Z,29.25
2023-03-06T20:50:03.511Z,29.27
2023-03-06T20:53:06.404Z,28.05
2023-03-06T20:56:16.363Z,27.83
2023-03-06T20:59:18.863Z,28.10
2023-03-06T21:02:21.141Z,27.30
2023-03-06T21:05:23.580Z,30.52
2023-03-06T21:08:25.874Z,31.10
2023-03-06T21:11:28.654Z,28.62
2023-03-06T21:14:31.092Z,27.87
2023-03-06T21:17:33.646Z,30.25
2023-03-06T21:20:38.667Z,27.70
2023-03-06T21:23:41.110Z,28.80
2023-03-06T21:26:43.264Z,27.05
2023-03-06T21:29:46.290Z,25.37
2023-03-06T21:32:51.089Z,29.27
2023-03-06T21:35:53.715Z,29.90
2023-03-06T21:38:55.906Z,28.05
2023-03-06T21:41:58.442Z,29.70
2023-03-06T21:45:00.568Z,27.45
2023-03-06T21:48:03.427Z,27.77
2023-03-06T21:51:10.371Z,28.40
2023-03-06T21:54:13.027Z,33.53
2023-03-06T21:57:15.389Z,30.48
2023-03-06T22:00:19.364Z,33.58
2023-03-06T22:03:21.820Z,33.15
2023-03-06T22:06:26.197Z,35.63
2023-03-06T22:09:28.673Z,38.70
2023-03-06T22:12:32.886Z,41.37
2023-03-06T22:15:35.296Z,37.67
2023-03-06T22:18:38.037Z,41.35
2023-03-06T22:21:40.506Z,41.60
2023-03-06T22:24:42.625Z,42.75
2023-03-06T22:27:45.033Z,52.03
2023-03-06T22:30:47.241Z,48.42
2023-03-06T22:33:54.300Z,46.05
2023-03-06T22:36:56.475Z,50.25
2023-03-06T22:39:58.912Z,52.53
2023-03-06T22:43:01.190Z,48.83
2023-03-06T22:46:06.486Z,50.60
2023-03-06T22:49:11.606Z,46.55
2023-03-06T22:52:15.245Z,47.38
2023-03-06T22:55:17.546Z,44.05
2023-03-06T22:58:20.040Z,42.10
2023-03-06T23:01:25.302Z,38.90
2023-03-06T23:04:27.819Z,43.50
2023-03-06T23:07:30.375Z,40.33
2023-03-06T23:10:39.800Z,42.75
2023-03-06T23:14:01.307Z,37.10
2023-03-06T23:20:43.542Z,40.67
2023-03-06T23:24:04.468Z,42.33
2023-03-06T23:27:07.108Z,43.13
2023-03-06T23:30:09.899Z,42.33
2023-03-06T23:33:12.388Z,41.20
2023-03-06T23:36:16.616Z,44.40
2023-03-06T23:39:19.167Z,40.25
2023-03-06T23:42:22.530Z,45.80
2023-03-06T23:45:25.047Z,43.50
2023-03-06T23:48:27.806Z,46.60
2023-03-06T23:51:30.289Z,44.03
2023-03-06T23:54:34.290Z,49.88
2023-03-06T23:57:37.141Z,55.28
